Time;durP1;ratioP1;P1;durP2;ratioP2;P2;SDS_P1;SDS_P2;PMS_P1;PMS_P2;Temp;Humidity;BMP_temperature;BMP_pressure;BME280_temperature;BME280_humidity;BME280_pressure;Samples;Min_cycle;Max_cycle;Signal;HPM_P1;HPM_P2
2022/07/02 00:00:24;;;;;;;1.38;0.10;;;27.50;37.10;;;;;;5074873;28;20040;-46
2022/07/02 00:02:53;;;;;;;0.10;0.10;;;27.40;37.00;;;;;;5075883;28;20048;-45
2022/07/02 00:05:23;;;;;;;0.17;0.10;;;27.40;37.00;;;;;;5076065;28;20052;-49
2022/07/02 00:07:51;;;;;;;1.13;0.10;;;27.50;37.10;;;;;;5073423;28;20032;-48
2022/07/02 00:10:20;;;;;;;0.63;0.25;;;27.40;37.00;;;;;;5052391;28;20103;-51
2022/07/02 00:12:48;;;;;;;0.10;0.10;;;27.50;37.10;;;;;;5079274;28;20045;-48
2022/07/02 00:15:16;;;;;;;0.32;0.10;;;27.50;37.10;;;;;;5078721;28;20040;-48
2022/07/02 00:17:44;;;;;;;0.10;0.10;;;27.40;37.10;;;;;;5073011;28;20040;-48
2022/07/02 00:20:12;;;;;;;0.10;0.10;;;27.40;37.00;;;;;;5078316;28;20040;-48
2022/07/02 00:22:40;;;;;;;0.65;0.30;;;27.40;37.00;;;;;;5071893;28;20090;-47
2022/07/02 00:25:07;;;;;;;0.20;0.10;;;27.40;37.00;;;;;;5076843;28;20405;-45
2022/07/02 00:27:39;;;;;;;0.10;0.10;;;27.40;37.10;;;;;;5074354;28;20645;-51
2022/07/02 00:30:08;;;;;;;0.10;0.10;;;27.40;37.00;;;;;;5076568;28;20148;-44
2022/07/02 00:32:37;;;;;;;0.40;0.10;;;27.40;37.10;;;;;;5078001;28;20035;-46
2022/07/02 00:35:07;;;;;;;0.20;0.10;;;27.40;37.10;;;;;;5073656;28;20099;-46
2022/07/02 00:37:35;;;;;;;0.77;0.10;;;27.40;37.10;;;;;;5074162;28;20074;-50
2022/07/02 00:40:02;;;;;;;0.25;0.10;;;27.40;37.10;;;;;;5072755;28;20127;-46
2022/07/02 00:42:31;;;;;;;0.45;0.13;;;27.40;37.60;;;;;;5068022;28;20390;-46
2022/07/02 00:45:00;;;;;;;0.10;0.08;;;27.40;37.10;;;;;;5072330;28;20051;-46
2022/07/02 00:47:30;;;;;;;0.32;0.10;;;27.40;37.10;;;;;;5071689;28;20033;-46
2022/07/02 00:49:57;;;;;;;0.10;0.10;;;27.40;37.10;;;;;;5076826;28;20090;-46
2022/07/02 00:52:24;;;;;;;0.10;0.10;;;27.40;37.10;;;;;;5066520;28;20046;-47
2022/07/02 00:54:51;;;;;;;0.25;0.05;;;27.40;37.10;;;;;;5070748;28;20055;-47
2022/07/02 00:57:21;;;;;;;0.25;0.10;;;27.40;37.10;;;;;;5076208;28;20417;-47
2022/07/02 00:59:48;;;;;;;0.30;0.10;;;27.40;37.10;;;;;;5078409;28;20054;-48
2022/07/02 01:02:21;;;;;;;2.03;0.38;;;27.40;37.10;;;;;;5074554;28;20043;-47
2022/07/02 01:04:51;;;;;;;0.35;0.10;;;27.30;37.10;;;;;;5082209;28;20094;-50
2022/07/02 01:07:20;;;;;;;0.10;0.10;;;27.30;37.10;;;;;;5073856;28;20044;-48
2022/07/02 01:12:35;;;;;;;0.55;0.10;;;27.30;37.10;;;;;;5077876;28;20098;-46
2022/07/02 01:15:02;;;;;;;0.13;0.10;;;27.30;37.20;;;;;;5076371;28;20106;-44
2022/07/02 01:17:30;;;;;;;0.10;0.10;;;27.30;37.20;;;;;;5071970;28;20063;-46
2022/07/02 01:19:57;;;;;;;0.73;0.20;;;27.30;37.20;;;;;;5075776;28;20121;-49
2022/07/02 01:22:32;;;;;;;0.43;0.10;;;27.20;37.70;;;;;;5070155;28;20051;-45
2022/07/02 01:24:59;;;;;;;0.30;0.10;;;27.30;37.20;;;;;;5075900;28;20110;-45
2022/07/02 01:27:26;;;;;;;0.10;0.10;;;27.20;37.10;;;;;;5072958;28;20051;-46
2022/07/02 01:29:54;;;;;;;0.85;0.10;;;27.30;37.20;;;;;;5075007;28;20048;-46
2022/07/02 01:32:21;;;;;;;0.13;0.10;;;27.20;37.10;;;;;;5073794;28;20131;-47
2022/07/02 01:34:50;;;;;;;0.43;0.10;;;27.30;37.30;;;;;;5072667;28;20089;-50
2022/07/02 01:37:19;;;;;;;0.25;0.20;;;27.20;37.20;;;;;;5067543;28;20040;-47
2022/07/02 01:39:49;;;;;;;0.20;0.10;;;27.30;37.20;;;;;;5078603;28;20047;-47
2022/07/02 01:42:16;;;;;;;0.10;0.10;;;27.30;37.20;;;;;;5076891;28;20131;-48
2022/07/02 01:44:44;;;;;;;0.10;0.10;;;27.30;37.20;;;;;;5071095;28;20056;-50
2022/07/02 01:47:12;;;;;;;0.10;0.10;;;27.20;37.20;;;;;;5073420;28;20522;-49
2022/07/02 01:49:40;;;;;;;3.03;0.50;;;27.20;37.20;;;;;;5074280;28;20125;-48
2022/07/02 01:52:08;;;;;;;0.00;0.00;;;27.20;37.20;;;;;;5075024;28;20060;-51
2022/07/02 01:54:35;;;;;;;0.82;0.10;;;27.20;37.20;;;;;;5072510;28;20512;-49
2022/07/02 01:57:05;;;;;;;0.10;0.10;;;27.20;37.20;;;;;;5072661;28;20056;-48
2022/07/02 01:59:33;;;;;;;0.10;0.10;;;27.20;37.30;;;;;;5075654;28;20062;-48
2022/07/02 02:02:00;;;;;;;0.10;0.10;;;27.20;37.30;;;;;;5072428;28;20036;-45
2022/07/02 02:04:27;;;;;;;1.00;0.10;;;27.20;37.30;;;;;;5067000;28;20043;-46
2022/07/02 02:06:54;;;;;;;0.10;0.10;;;27.20;37.90;;;;;;5075681;28;20049;-48
2022/07/02 02:09:21;;;;;;;0.20;0.20;;;27.20;37.30;;;;;;5078829;28;20119;-44
2022/07/02 02:11:49;;;;;;;0.57;0.10;;;27.10;37.20;;;;;;5071147;28;20123;-49
2022/07/02 02:14:17;;;;;;;0.15;0.10;;;27.20;37.30;;;;;;5072989;28;20119;-45
2022/07/02 02:16:44;;;;;;;0.10;0.10;;;27.20;37.30;;;;;;5071048;28;20044;-48
2022/07/02 02:19:12;;;;;;;0.10;0.10;;;27.20;37.30;;;;;;5083713;28;20135;-47
2022/07/02 02:21:39;;;;;;;0.30;0.10;;;27.10;37.30;;;;;;5075982;28;20450;-44
2022/07/02 02:24:06;;;;;;;0.40;0.20;;;27.10;37.30;;;;;;5058178;28;20045;-46
2022/07/02 02:26:33;;;;;;;0.10;0.00;;;27.20;37.40;;;;;;5071081;28;20047;-51
2022/07/02 02:29:00;;;;;;;0.30;0.05;;;27.10;37.30;;;;;;5071429;28;20110;-46
2022/07/02 02:31:28;;;;;;;0.82;0.63;;;27.10;37.30;;;;;;5069114;28;20111;-48
2022/07/02 02:33:56;;;;;;;0.50;0.03;;;27.10;37.30;;;;;;5076181;28;20080;-46
2022/07/02 02:36:23;;;;;;;0.00;0.00;;;27.10;37.30;;;;;;5072389;28;20597;-45
2022/07/02 02:38:50;;;;;;;0.55;0.05;;;27.10;37.30;;;;;;5077262;28;20046;-47
2022/07/02 02:41:17;;;;;;;0.10;0.10;;;27.10;37.40;;;;;;5073881;28;20407;-45
2022/07/02 02:43:44;;;;;;;0.00;0.00;;;27.10;37.30;;;;;;5071461;28;20127;-44
2022/07/02 02:46:11;;;;;;;0.30;0.10;;;27.10;37.40;;;;;;5068369;28;20642;-48
2022/07/02 02:48:40;;;;;;;0.10;0.10;;;27.10;37.30;;;;;;5077177;28;20139;-46
2022/07/02 02:51:08;;;;;;;0.10;0.00;;;27.10;37.30;;;;;;5076740;28;20037;-45
2022/07/02 02:53:35;;;;;;;0.30;0.00;;;27.10;37.30;;;;;;5070873;28;20488;-49
2022/07/02 02:56:04;;;;;;;0.52;0.08;;;27.10;37.30;;;;;;5070744;28;20500;-47
2022/07/02 02:58:31;;;;;;;1.08;0.10;;;27.10;37.40;;;;;;5073170;28;20052;-45
2022/07/02 03:00:58;;;;;;;0.10;0.10;;;27.10;37.40;;;;;;5072634;28;20045;-47
2022/07/02 03:03:25;;;;;;;0.10;0.10;;;27.00;37.30;;;;;;5075012;28;20048;-51
2022/07/02 03:05:54;;;;;;;0.57;0.10;;;27.00;37.30;;;;;;5074860;28;20580;-46
2022/07/02 03:08:21;;;;;;;0.00;0.00;;;27.10;37.40;;;;;;5076964;28;20416;-45
2022/07/02 03:10:50;;;;;;;0.00;0.00;;;27.00;37.40;;;;;;5076675;28;20063;-45
2022/07/02 03:13:17;;;;;;;0.20;0.20;;;27.00;37.30;;;;;;5071399;28;20064;-44
2022/07/02 03:15:44;;;;;;;0.00;0.00;;;27.00;37.30;;;;;;5077375;28;20048;-45
2022/07/02 03:18:11;;;;;;;0.40;0.00;;;27.00;37.30;;;;;;5080590;28;20424;-46
2022/07/02 03:20:38;;;;;;;0.43;0.10;;;27.00;37.30;;;;;;5065391;28;20043;-46
2022/07/02 03:23:07;;;;;;;0.10;0.10;;;27.00;38.00;;;;;;5084622;28;20085;-44
2022/07/02 03:25:34;;;;;;;0.10;0.10;;;27.00;37.40;;;;;;5063698;28;20060;-48
2022/07/02 03:28:01;;;;;;;0.03;0.03;;;27.00;37.40;;;;;;5079732;28;20052;-49
2022/07/02 03:30:28;;;;;;;0.20;0.10;;;27.00;37.40;;;;;;5077619;28;20033;-45
2022/07/02 03:32:55;;;;;;;0.08;0.08;;;27.00;37.40;;;;;;5078610;28;20052;-45
2022/07/02 03:35:22;;;;;;;0.10;0.10;;;27.00;37.50;;;;;;5077420;28;20515;-45
2022/07/02 03:37:49;;;;;;;1.40;0.00;;;27.00;37.50;;;;;;5072774;28;20036;-45
2022/07/02 03:40:18;;;;;;;0.35;0.15;;;27.00;37.50;;;;;;5073189;28;20040;-49
2022/07/02 03:42:46;;;;;;;0.10;0.10;;;27.00;37.50;;;;;;5078186;28;20047;-48
2022/07/02 03:45:13;;;;;;;0.52;0.08;;;27.00;37.50;;;;;;5074085;28;20094;-46
2022/07/02 03:47:40;;;;;;;0.00;0.00;;;27.00;37.50;;;;;;5076343;28;20040;-45
2022/07/02 03:50:07;;;;;;;0.00;0.00;;;27.00;37.50;;;;;;5079644;28;20043;-46
2022/07/02 03:52:36;;;;;;;0.22;0.10;;;26.90;37.50;;;;;;5074348;28;20044;-48
2022/07/02 03:55:04;;;;;;;0.57;0.10;;;26.90;37.50;;;;;;5072222;28;20041;-46
2022/07/02 03:57:33;;;;;;;0.47;0.10;;;26.90;37.50;;;;;;5077827;28;20040;-45
2022/07/02 04:00:00;;;;;;;0.00;0.00;;;26.90;37.50;;;;;;5086100;28;20047;-47
2022/07/02 04:02:28;;;;;;;0.10;0.00;;;26.90;37.50;;;;;;5079087;28;20044;-46
2022/07/02 04:04:55;;;;;;;0.30;0.10;;;26.90;37.50;;;;;;5072366;28;20059;-46
2022/07/02 04:07:23;;;;;;;0.85;0.10;;;26.90;37.50;;;;;;5069238;28;20505;-47
2022/07/02 04:09:50;;;;;;;0.03;0.00;;;26.90;38.10;;;;;;5079467;28;20051;-47
2022/07/02 04:12:17;;;;;;;0.10;0.10;;;26.90;37.50;;;;;;5073082;28;20052;-46
2022/07/02 04:14:45;;;;;;;0.03;0.00;;;26.90;37.50;;;;;;5076787;28;20158;-47
2022/07/02 04:17:12;;;;;;;0.10;0.10;;;26.90;37.50;;;;;;5077573;28;20980;-47
2022/07/02 04:19:39;;;;;;;0.10;0.10;;;26.90;37.50;;;;;;5078270;28;20139;-51
2022/07/02 04:22:06;;;;;;;0.00;0.00;;;26.90;37.50;;;;;;5072117;28;20090;-48
2022/07/02 04:24:34;;;;;;;0.43;0.10;;;26.90;37.50;;;;;;5076875;28;20127;-49
2022/07/02 04:27:01;;;;;;;0.05;0.00;;;26.90;37.60;;;;;;5081318;28;20067;-47
2022/07/02 04:29:28;;;;;;;0.10;0.10;;;26.90;37.60;;;;;;5072944;28;20037;-45
2022/07/02 04:31:56;;;;;;;0.10;0.10;;;26.90;37.60;;;;;;5072472;28;20068;-48
2022/07/02 04:34:23;;;;;;;0.10;0.05;;;26.90;37.60;;;;;;5068613;28;20102;-47
2022/07/02 04:36:50;;;;;;;0.10;0.08;;;26.90;37.60;;;;;;5085077;28;20073;-48
2022/07/02 04:39:17;;;;;;;0.25;0.10;;;26.90;38.20;;;;;;5072425;28;20048;-47
2022/07/02 04:41:44;;;;;;;0.15;0.10;;;26.90;37.70;;;;;;5076840;28;20067;-47
2022/07/02 04:44:11;;;;;;;0.10;0.10;;;26.90;37.60;;;;;;5074522;28;20032;-51
2022/07/02 04:46:38;;;;;;;0.20;0.10;;;26.90;37.70;;;;;;5083994;28;20546;-46
2022/07/02 04:49:07;;;;;;;0.10;0.10;;;26.90;37.70;;;;;;5075197;28;20036;-47
2022/07/02 04:51:34;;;;;;;0.40;0.10;;;26.90;37.60;;;;;;5078043;28;20127;-46
2022/07/02 04:54:01;;;;;;;0.45;0.10;;;26.80;37.60;;;;;;5072509;28;20033;-45
2022/07/02 04:56:28;;;;;;;0.10;0.03;;;26.80;37.60;;;;;;5078980;28;20071;-47
2022/07/02 04:58:56;;;;;;;0.10;0.10;;;26.80;37.60;;;;;;5072115;28;20067;-48
2022/07/02 05:01:24;;;;;;;1.17;0.10;;;26.90;37.70;;;;;;5073735;28;20516;-49
2022/07/02 05:03:51;;;;;;;0.10;0.10;;;26.80;37.60;;;;;;5069752;28;20044;-45
2022/07/02 05:06:21;;;;;;;0.10;0.10;;;26.90;37.60;;;;;;5070840;28;20059;-46
2022/07/02 05:08:48;;;;;;;0.10;0.10;;;26.90;37.70;;;;;;5077008;28;20071;-45
2022/07/02 05:11:16;;;;;;;1.55;0.10;;;26.90;37.70;;;;;;5074674;28;20055;-47
2022/07/02 05:13:43;;;;;;;0.08;0.00;;;26.80;37.60;;;;;;5082460;28;20041;-46
2022/07/02 05:16:10;;;;;;;0.10;0.10;;;26.80;37.60;;;;;;5072531;28;20123;-46
2022/07/02 05:18:37;;;;;;;1.00;0.10;;;26.90;37.60;;;;;;5078863;28;20080;-47
2022/07/02 05:21:05;;;;;;;0.20;0.10;;;26.80;37.60;;;;;;5073725;28;20124;-45
2022/07/02 05:23:33;;;;;;;1.25;0.10;;;26.90;37.70;;;;;;5076825;28;20558;-47
2022/07/02 05:26:01;;;;;;;0.10;0.10;;;26.90;37.70;;;;;;5076385;28;20036;-46
2022/07/02 05:28:28;;;;;;;0.95;0.10;;;26.90;37.70;;;;;;5058655;28;20047;-45
2022/07/02 05:30:55;;;;;;;2.40;0.10;;;26.90;37.70;;;;;;5072690;28;20057;-46
2022/07/02 05:33:22;;;;;;;0.10;0.10;;;26.90;37.70;;;;;;5076206;28;20033;-46
2022/07/02 05:35:49;;;;;;;0.63;0.50;;;26.90;37.70;;;;;;5077135;28;20040;-46
2022/07/02 05:38:16;;;;;;;0.10;0.10;;;26.90;37.70;;;;;;5071253;28;20155;-49
2022/07/02 05:40:46;;;;;;;0.32;0.10;;;26.80;37.60;;;;;;5070104;28;20072;-47
2022/07/02 05:43:13;;;;;;;0.10;0.10;;;26.90;37.70;;;;;;5073068;28;20045;-47
2022/07/02 05:45:40;;;;;;;0.10;0.10;;;26.90;37.70;;;;;;5079038;28;20055;-47
2022/07/02 05:48:08;;;;;;;0.20;0.20;;;26.90;37.70;;;;;;5072648;28;20057;-47
2022/07/02 05:50:35;;;;;;;0.30;0.10;;;26.90;37.70;;;;;;5078785;28;20497;-45
2022/07/02 05:53:02;;;;;;;0.10;0.10;;;26.90;38.30;;;;;;5074821;28;20119;-44
2022/07/02 05:55:29;;;;;;;0.90;0.10;;;26.90;37.60;;;;;;5072955;28;20040;-45
2022/07/02 05:57:58;;;;;;;0.10;0.00;;;26.90;37.70;;;;;;5058924;28;20529;-47
2022/07/02 06:00:25;;;;;;;0.10;0.10;;;26.90;37.70;;;;;;5076416;28;20051;-48
2022/07/02 06:02:52;;;;;;;0.20;0.10;;;26.90;37.60;;;;;;5077577;28;20047;-46
2022/07/02 06:08:04;;;;;;;0.20;0.10;;;26.90;37.60;;;;;;5071581;28;20127;-47
2022/07/02 06:10:31;;;;;;;0.80;0.10;;;26.90;37.60;;;;;;5082364;28;20052;-44
2022/07/02 06:12:59;;;;;;;0.50;0.13;;;26.90;37.60;;;;;;5070594;28;20079;-49
2022/07/02 06:15:27;;;;;;;0.50;0.10;;;26.90;37.60;;;;;;5074600;28;20107;-46
2022/07/02 06:17:59;;;;;;;0.52;0.10;;;26.90;37.60;;;;;;5074380;28;20047;-43
2022/07/02 06:20:27;;;;;;;1.38;0.10;;;27.00;37.70;;;;;;5075187;28;20094;-46
2022/07/02 06:22:54;;;;;;;0.10;0.08;;;26.90;37.60;;;;;;5070191;28;20032;-46
2022/07/02 06:25:22;;;;;;;0.32;0.10;;;26.90;37.60;;;;;;5074526;28;20074;-45
2022/07/02 06:27:49;;;;;;;0.30;0.30;;;26.90;37.60;;;;;;5077516;28;20037;-45
2022/07/02 06:30:17;;;;;;;0.20;0.20;;;27.00;37.60;;;;;;5071112;28;20041;-45
2022/07/02 06:32:44;;;;;;;0.13;0.13;;;27.00;37.60;;;;;;5073807;28;20202;-46
2022/07/02 06:35:12;;;;;;;0.52;0.10;;;26.90;37.50;;;;;;5074179;28;20065;-47
2022/07/02 06:37:39;;;;;;;0.55;0.10;;;27.00;37.60;;;;;;5071514;28;20087;-46
2022/07/02 06:40:07;;;;;;;0.30;0.10;;;27.00;37.60;;;;;;5070361;28;20057;-48
2022/07/02 06:42:34;;;;;;;0.10;0.10;;;27.00;37.60;;;;;;5079159;28;20040;-47
2022/07/02 06:45:02;;;;;;;0.10;0.10;;;27.00;37.60;;;;;;5079954;28;20041;-47
2022/07/02 06:47:32;;;;;;;0.30;0.20;;;27.00;37.60;;;;;;5074390;28;20032;-50
2022/07/02 06:50:00;;;;;;;0.10;0.10;;;26.90;37.50;;;;;;5078582;28;20040;-48
2022/07/02 06:52:28;;;;;;;0.10;0.10;;;27.00;37.60;;;;;;5074146;28;20545;-46
2022/07/02 06:54:55;;;;;;;0.20;0.20;;;27.00;37.50;;;;;;5083552;28;20052;-50
2022/07/02 06:57:22;;;;;;;0.10;0.10;;;27.00;38.10;;;;;;5077492;28;20060;-47
2022/07/02 06:59:49;;;;;;;0.20;0.10;;;27.00;37.50;;;;;;5078226;28;20369;-47
2022/07/02 07:02:16;;;;;;;0.30;0.30;;;27.00;37.50;;;;;;5076403;28;20032;-46
2022/07/02 07:04:45;;;;;;;0.25;0.10;;;27.00;37.50;;;;;;5076193;28;20049;-50
2022/07/02 07:07:12;;;;;;;0.13;0.10;;;27.00;37.40;;;;;;5071598;28;20041;-46
2022/07/02 07:09:39;;;;;;;0.65;0.10;;;27.00;37.40;;;;;;5079900;28;20131;-51
2022/07/02 07:12:07;;;;;;;0.10;0.10;;;27.00;37.40;;;;;;5080693;28;20040;-48
2022/07/02 07:14:35;;;;;;;0.10;0.10;;;27.00;37.40;;;;;;5074036;28;20123;-49
2022/07/02 07:17:02;;;;;;;0.10;0.10;;;27.10;37.50;;;;;;5074143;28;20028;-47
2022/07/02 07:19:31;;;;;;;0.20;0.10;;;27.10;37.50;;;;;;5078703;28;20135;-48
2022/07/02 07:22:00;;;;;;;0.20;0.10;;;27.00;37.40;;;;;;5080324;28;20580;-47
2022/07/02 07:24:27;;;;;;;0.10;0.10;;;27.10;37.40;;;;;;5076000;28;20102;-47
2022/07/02 07:26:54;;;;;;;0.68;0.20;;;27.00;37.30;;;;;;5081781;28;20044;-49
2022/07/02 07:29:21;;;;;;;0.13;0.10;;;27.10;37.40;;;;;;5074266;28;20128;-47
2022/07/02 07:31:48;;;;;;;0.20;0.00;;;27.10;37.30;;;;;;5072166;28;20044;-49
2022/07/02 07:34:15;;;;;;;0.15;0.10;;;27.10;37.30;;;;;;5073287;28;20043;-44
2022/07/02 07:36:42;;;;;;;0.65;0.40;;;27.10;37.30;;;;;;5067750;28;20041;-45
2022/07/02 07:39:11;;;;;;;0.38;0.10;;;27.10;37.30;;;;;;5073709;28;20033;-47
2022/07/02 07:41:39;;;;;;;0.10;0.10;;;27.10;37.30;;;;;;5080616;28;20492;-47
2022/07/02 07:44:06;;;;;;;0.20;0.10;;;27.10;37.30;;;;;;5074261;28;20048;-48
2022/07/02 07:46:34;;;;;;;0.10;0.10;;;27.10;37.30;;;;;;5073800;28;20045;-46
2022/07/02 07:49:02;;;;;;;0.20;0.10;;;27.10;37.30;;;;;;5077019;28;20048;-49
2022/07/02 07:51:29;;;;;;;0.38;0.10;;;27.10;37.30;;;;;;5079187;28;20079;-49
2022/07/02 07:53:56;;;;;;;0.30;0.10;;;27.10;37.30;;;;;;5077725;28;20048;-44
2022/07/02 07:56:25;;;;;;;0.15;0.15;;;27.10;37.20;;;;;;5073695;28;20040;-44
2022/07/02 07:58:52;;;;;;;0.82;0.38;;;27.20;37.30;;;;;;5072335;28;20111;-44
2022/07/02 08:01:19;;;;;;;0.90;0.10;;;27.20;37.30;;;;;;5072976;28;20509;-46
2022/07/02 08:03:46;;;;;;;0.32;0.32;;;27.10;37.20;;;;;;5079224;28;20045;-46
2022/07/02 08:06:13;;;;;;;1.42;0.17;;;27.20;37.30;;;;;;5073580;28;20523;-49
2022/07/02 08:08:40;;;;;;;1.30;0.10;;;27.20;37.30;;;;;;5076342;28;20040;-46
2022/07/02 08:11:08;;;;;;;0.30;0.13;;;27.20;37.20;;;;;;5074235;28;20036;-50
2022/07/02 08:13:36;;;;;;;0.20;0.17;;;27.20;37.20;;;;;;5074398;28;20530;-47
2022/07/02 08:16:03;;;;;;;0.20;0.10;;;27.20;37.20;;;;;;5072196;28;20046;-48
2022/07/02 08:18:32;;;;;;;0.82;0.10;;;27.20;37.20;;;;;;5078787;28;20048;-45
2022/07/02 08:20:59;;;;;;;0.90;0.20;;;27.20;37.20;;;;;;5082167;28;20043;-46
2022/07/02 08:23:26;;;;;;;0.20;0.20;;;27.20;37.20;;;;;;5072825;28;20047;-45
2022/07/02 08:25:54;;;;;;;0.80;0.10;;;27.20;37.10;;;;;;5076341;28;20036;-45
2022/07/02 08:28:21;;;;;;;0.30;0.10;;;27.20;37.10;;;;;;5072908;28;20040;-47
2022/07/02 08:30:49;;;;;;;0.45;0.30;;;27.20;37.10;;;;;;5080605;28;20050;-46
2022/07/02 08:33:16;;;;;;;0.10;0.10;;;27.20;37.10;;;;;;5072892;28;20931;-45
2022/07/02 08:35:44;;;;;;;0.13;0.10;;;27.20;37.10;;;;;;5077207;28;20114;-47
2022/07/02 08:38:11;;;;;;;0.13;0.10;;;27.20;37.10;;;;;;5073919;28;20050;-47
2022/07/02 08:40:42;;;;;;;0.10;0.10;;;27.20;37.00;;;;;;5075130;28;20055;-46
2022/07/02 08:43:12;;;;;;;0.68;0.10;;;27.20;37.00;;;;;;5070549;28;20063;-46
2022/07/02 08:45:41;;;;;;;0.57;0.10;;;27.20;37.00;;;;;;5074303;28;20378;-45
2022/07/02 08:48:11;;;;;;;0.50;0.20;;;27.20;37.00;;;;;;5073003;28;20509;-45
2022/07/02 08:50:38;;;;;;;0.47;0.10;;;27.30;37.00;;;;;;5080379;28;20070;-47
2022/07/02 08:53:06;;;;;;;0.10;0.10;;;27.30;37.00;;;;;;5082731;28;20032;-46
2022/07/02 08:55:35;;;;;;;0.25;0.10;;;27.20;36.90;;;;;;5058469;28;20063;-48
2022/07/02 08:58:02;;;;;;;1.20;0.10;;;27.20;36.90;;;;;;5071245;28;20036;-48
2022/07/02 09:00:29;;;;;;;1.17;0.10;;;27.30;37.00;;;;;;5078229;28;20079;-48
2022/07/02 09:02:58;;;;;;;1.98;0.30;;;27.20;36.80;;;;;;5077008;28;20047;-45
2022/07/02 09:05:28;;;;;;;1.42;0.00;;;27.20;36.80;;;;;;5072563;28;20049;-50
2022/07/02 09:07:56;;;;;;;0.13;0.05;;;27.30;36.90;;;;;;5071605;28;20036;-44
2022/07/02 09:10:24;;;;;;;0.50;0.10;;;27.30;36.90;;;;;;5070676;28;20052;-46
2022/07/02 09:12:53;;;;;;;0.40;0.10;;;27.30;36.80;;;;;;5068051;28;20049;-47
2022/07/02 09:15:21;;;;;;;0.10;0.10;;;27.30;36.80;;;;;;5072458;28;20067;-48
2022/07/02 09:17:48;;;;;;;0.40;0.10;;;27.20;36.70;;;;;;5075317;28;20040;-49
2022/07/02 09:20:15;;;;;;;0.17;0.10;;;27.30;36.80;;;;;;5077299;28;20527;-47
2022/07/02 09:22:45;;;;;;;0.88;0.10;;;27.30;36.70;;;;;;5073000;28;20047;-47
2022/07/02 09:25:14;;;;;;;0.03;0.00;;;27.30;36.70;;;;;;5072671;28;20137;-48
2022/07/02 09:27:42;;;;;;;0.40;0.17;;;27.30;36.70;;;;;;5076209;28;20131;-45
2022/07/02 09:30:10;;;;;;;0.10;0.00;;;27.30;36.70;;;;;;5077465;28;20119;-45
2022/07/02 09:32:43;;;;;;;0.55;0.55;;;27.30;36.70;;;;;;5071564;28;20825;-45
2022/07/02 09:35:18;;;;;;;14.27;0.52;;;27.30;36.60;;;;;;5074274;28;20444;-45
2022/07/02 09:37:47;;;;;;;;;;;27.30;36.80;;;;;;5065971;28;20049;-54
2022/07/02 09:40:15;;;;;;;0.25;0.10;;;27.20;37.30;;;;;;5072009;28;19930;-56
2022/07/02 09:42:49;;;;;;;0.45;0.00;;;27.20;37.20;;;;;;5080918;28;20505;-54
2022/07/02 09:45:17;;;;;;;0.03;0.00;;;27.30;37.00;;;;;;5072657;28;20122;-52
2022/07/02 09:47:48;;;;;;;0.20;0.20;;;27.50;36.80;;;;;;5067761;28;20066;-54
2022/07/02 09:50:17;;;;;;;2.50;0.17;;;27.80;36.20;;;;;;5075217;28;20043;-54
2022/07/02 09:52:50;;;;;;;0.85;0.10;;;28.00;35.50;;;;;;5056944;28;20170;-53
2022/07/02 09:55:23;;;;;;;0.13;0.00;;;28.40;35.00;;;;;;5064440;28;20385;-55
2022/07/02 09:57:52;;;;;;;0.10;0.00;;;28.80;34.50;;;;;;5081811;28;20373;-55
2022/07/02 10:00:19;;;;;;;0.55;0.00;;;29.10;33.80;;;;;;5068104;28;20048;-57
2022/07/02 10:02:50;;;;;;;0.10;0.00;;;29.40;33.10;;;;;;5070839;28;20040;-53
2022/07/02 10:05:23;;;;;;;0.00;0.00;;;29.70;32.40;;;;;;5065533;28;20318;-55
2022/07/02 10:07:53;;;;;;;0.32;0.08;;;30.10;32.10;;;;;;5071943;28;20143;-52
2022/07/02 10:10:24;;;;;;;0.00;0.00;;;30.30;31.60;;;;;;5067132;28;20053;-57
2022/07/02 10:12:52;;;;;;;0.10;0.00;;;30.60;31.00;;;;;;5074390;28;20071;-56
2022/07/02 10:15:23;;;;;;;0.17;0.17;;;30.90;30.40;;;;;;5069507;28;20051;-51
2022/07/02 10:17:54;;;;;;;0.38;0.00;;;31.20;30.00;;;;;;5076831;28;20052;-50
2022/07/02 10:20:22;;;;;;;0.00;0.00;;;31.50;29.70;;;;;;5072761;28;20040;-54
2022/07/02 10:22:49;;;;;;;0.32;0.00;;;31.60;29.30;;;;;;5067971;28;20179;-56
2022/07/02 10:25:18;;;;;;;1.17;0.00;;;31.70;29.20;;;;;;5070487;28;20048;-58
2022/07/02 10:27:46;;;;;;;0.00;0.00;;;31.70;29.20;;;;;;5081686;28;20528;-57
2022/07/02 10:30:14;;;;;;;0.10;0.10;;;31.70;29.20;;;;;;5080200;28;20123;-56
2022/07/02 10:32:55;;;;;;;0.38;0.30;;;31.60;29.10;;;;;;5079818;28;20123;-57
2022/07/02 10:35:23;;;;;;;1.98;0.20;;;31.50;29.00;;;;;;5081053;28;20408;-52
2022/07/02 10:37:57;;;;;;;0.10;0.00;;;31.40;29.10;;;;;;5072255;28;20105;-56
2022/07/02 10:40:26;;;;;;;0.22;0.00;;;31.30;29.20;;;;;;5072120;28;20055;-57
2022/07/02 10:42:57;;;;;;;1.65;0.00;;;31.30;29.70;;;;;;5080116;28;20131;-56
2022/07/02 10:45:25;;;;;;;0.03;0.00;;;31.20;29.30;;;;;;5081193;28;20055;-49
2022/07/02 10:47:54;;;;;;;1.35;0.10;;;31.10;29.30;;;;;;5072000;28;20047;-51
2022/07/02 10:50:26;;;;;;;0.00;0.00;;;31.10;29.40;;;;;;5074632;28;20416;-52
2022/07/02 10:52:54;;;;;;;0.15;0.00;;;31.00;29.40;;;;;;5076079;28;20040;-55
2022/07/02 10:55:28;;;;;;;1.17;0.00;;;30.90;29.30;;;;;;5071410;28;20037;-55
2022/07/02 10:58:00;;;;;;;0.00;0.00;;;30.90;29.40;;;;;;5075960;28;20132;-58
2022/07/02 11:00:29;;;;;;;0.57;0.00;;;30.90;29.20;;;;;;5074813;28;20040;-45
2022/07/02 11:02:58;;;;;;;0.70;0.20;;;30.80;29.00;;;;;;5074036;28;20087;-45
2022/07/02 11:05:25;;;;;;;0.08;0.00;;;30.80;29.30;;;;;;5074089;28;20058;-46
2022/07/02 11:07:53;;;;;;;1.25;0.00;;;30.70;29.10;;;;;;5072794;28;20788;-43
2022/07/02 11:10:29;;;;;;;5.30;0.95;;;30.70;28.70;;;;;;5077418;28;20070;-46
2022/07/02 11:13:01;;;;;;;0.28;0.00;;;30.70;28.60;;;;;;5071709;28;20048;-48
2022/07/02 11:15:36;;;;;;;1.08;0.00;;;30.60;28.70;;;;;;5077368;28;20044;-45
2022/07/02 11:18:07;;;;;;;0.35;0.00;;;30.60;28.80;;;;;;5079011;28;20479;-48
2022/07/02 11:20:35;;;;;;;0.60;0.00;;;30.60;28.70;;;;;;5078905;28;20495;-47
2022/07/02 11:23:03;;;;;;;0.40;0.03;;;30.60;28.80;;;;;;5079159;28;20032;-43
2022/07/02 11:25:32;;;;;;;0.30;0.00;;;30.50;28.70;;;;;;5078442;28;20496;-52
2022/07/02 11:28:01;;;;;;;0.13;0.00;;;30.50;28.80;;;;;;5082545;28;20392;-46
2022/07/02 11:30:29;;;;;;;0.52;0.00;;;30.50;28.90;;;;;;5083144;28;20048;-45
2022/07/02 11:32:57;;;;;;;2.00;0.00;;;30.50;28.80;;;;;;5083133;28;20131;-48
2022/07/02 11:35:25;;;;;;;0.45;0.45;;;30.50;28.60;;;;;;5078783;28;20047;-48
2022/07/02 11:37:56;;;;;;;1.23;0.00;;;30.60;28.70;;;;;;5083311;28;20124;-46
2022/07/02 11:40:25;;;;;;;0.20;0.03;;;30.50;28.50;;;;;;5084102;28;20044;-49
2022/07/02 11:42:54;;;;;;;0.10;0.00;;;30.60;28.70;;;;;;5087230;28;20044;-46
2022/07/02 11:45:22;;;;;;;0.55;0.10;;;30.60;28.70;;;;;;5062367;28;20508;-46
2022/07/02 11:47:50;;;;;;;1.52;0.10;;;30.60;28.60;;;;;;5083466;28;20040;-46
2022/07/02 11:50:28;;;;;;;0.32;0.10;;;30.60;28.50;;;;;;5081001;28;20129;-46
2022/07/02 11:52:55;;;;;;;0.00;0.00;;;30.70;28.60;;;;;;5080723;28;20558;-45
2022/07/02 11:55:23;;;;;;;0.32;0.20;;;30.70;28.50;;;;;;5086212;28;20059;-45
2022/07/02 11:57:51;;;;;;;0.20;0.00;;;30.70;28.50;;;;;;5087811;28;20508;-45
2022/07/02 12:00:20;;;;;;;0.10;0.00;;;30.70;28.40;;;;;;5083288;28;20061;-49
2022/07/02 12:02:47;;;;;;;0.00;0.00;;;30.70;28.30;;;;;;5078938;28;20070;-47
2022/07/02 12:05:19;;;;;;;0.63;0.20;;;30.80;28.30;;;;;;5075096;28;20110;-45
2022/07/02 12:07:47;;;;;;;0.10;0.00;;;30.80;28.30;;;;;;5076567;28;20041;-46
2022/07/02 12:10:15;;;;;;;0.52;0.00;;;30.80;28.30;;;;;;5070516;28;20046;-46
2022/07/02 12:12:42;;;;;;;0.10;0.00;;;30.80;28.40;;;;;;5085478;28;20094;-46
2022/07/02 12:15:10;;;;;;;0.00;0.00;;;30.80;28.40;;;;;;5078907;28;20040;-48
2022/07/02 12:17:47;;;;;;;0.52;0.00;;;30.90;28.50;;;;;;5075302;28;20054;-46
2022/07/02 12:20:16;;;;;;;1.13;0.00;;;31.00;28.50;;;;;;5077884;28;20466;-46
2022/07/02 12:22:43;;;;;;;0.50;0.00;;;31.00;28.50;;;;;;5075729;28;20143;-45
2022/07/02 12:25:10;;;;;;;0.47;0.10;;;31.00;28.40;;;;;;5076645;28;20056;-45
2022/07/02 12:27:37;;;;;;;0.20;0.00;;;31.10;28.30;;;;;;5080431;28;20047;-45
2022/07/02 12:30:13;;;;;;;0.10;0.00;;;31.10;28.30;;;;;;5077421;28;20049;-45
2022/07/02 12:32:42;;;;;;;0.10;0.00;;;31.10;28.30;;;;;;5068000;28;20040;-46
2022/07/02 12:35:10;;;;;;;0.08;0.08;;;31.10;28.30;;;;;;5079789;28;20039;-45
2022/07/02 12:37:40;;;;;;;0.40;0.00;;;31.20;28.30;;;;;;5071506;28;20047;-46
2022/07/02 12:40:10;;;;;;;0.00;0.00;;;31.20;28.20;;;;;;5079261;28;20036;-46
2022/07/02 12:42:45;;;;;;;0.57;0.20;;;31.30;28.30;;;;;;5082906;28;20051;-46
2022/07/02 12:45:22;;;;;;;0.10;0.05;;;31.30;28.20;;;;;;5073915;28;20105;-47
2022/07/02 12:47:58;;;;;;;0.32;0.00;;;31.30;28.10;;;;;;5073320;28;20562;-46
2022/07/02 12:50:27;;;;;;;0.35;0.10;;;31.40;28.10;;;;;;5079417;28;20119;-45
2022/07/02 12:52:57;;;;;;;0.17;0.00;;;31.40;28.00;;;;;;5079482;28;20089;-45
2022/07/02 12:55:26;;;;;;;0.00;0.00;;;31.40;28.00;;;;;;5073974;28;20059;-45
2022/07/02 12:57:55;;;;;;;0.73;0.00;;;31.50;28.10;;;;;;5073721;28;20098;-46